Time;durP1;ratioP1;P1;durP2;ratioP2;P2;SDS_P1;SDS_P2;PMS_P1;PMS_P2;Temp;Humidity;BMP_temperature;BMP_pressure;BME280_temperature;BME280_humidity;BME280_pressure;Samples;Min_cycle;Max_cycle;Signal;HPM_P1;HPM_P2
2022/05/31 00:02:19;;;;;;;4.28;2.00;;;19.00;48.30;;;;;;7379032;19;20015;-77
2022/05/31 00:04:50;;;;;;;;;;;19.00;48.20;;;;;;7393481;19;20082;-77
2022/05/31 00:07:20;;;;;;;5.40;2.60;;;19.10;48.40;;;;;;7370282;19;19922;-77
2022/05/31 00:09:49;;;;;;;5.40;2.50;;;19.00;48.50;;;;;;7365416;19;20028;-77
2022/05/31 00:12:19;;;;;;;5.53;2.35;;;19.00;48.90;;;;;;7366768;19;20474;-77
2022/05/31 00:14:48;;;;;;;6.00;2.50;;;19.00;48.70;;;;;;7366517;19;20014;-77
2022/05/31 00:17:17;;;;;;;4.28;1.85;;;19.00;48.30;;;;;;7371764;19;20032;-77
2022/05/31 00:19:45;;;;;;;5.45;1.80;;;19.00;47.90;;;;;;7392046;19;20118;-77
2022/05/31 00:22:19;;;;;;;3.38;1.48;;;18.90;47.70;;;;;;7365868;19;20685;-77
2022/05/31 00:24:48;;;;;;;3.35;1.83;;;18.90;47.50;;;;;;7370058;19;20053;-78
2022/05/31 00:27:19;;;;;;;3.22;2.00;;;18.90;47.60;;;;;;7370727;19;20335;-77
2022/05/31 00:29:48;;;;;;;2.83;1.90;;;18.90;48.50;;;;;;7370719;19;20345;-77
2022/05/31 00:32:21;;;;;;;3.28;1.60;;;18.80;48.50;;;;;;7370499;19;20025;-78
2022/05/31 00:34:52;;;;;;;3.40;1.55;;;18.80;48.60;;;;;;7389942;19;20074;-77
2022/05/31 00:37:24;;;;;;;4.28;2.25;;;18.80;48.50;;;;;;7371761;19;20035;-77
2022/05/31 00:39:53;;;;;;;5.40;2.28;;;18.80;48.60;;;;;;7369750;19;20347;-77
2022/05/31 00:42:24;;;;;;;4.38;2.35;;;18.80;48.70;;;;;;7372472;19;20397;-77
2022/05/31 00:44:53;;;;;;;3.05;2.28;;;18.80;49.30;;;;;;7370322;19;20006;-77
2022/05/31 00:47:27;;;;;;;6.10;2.63;;;18.70;49.60;;;;;;7369334;19;20057;-77
2022/05/31 00:50:00;;;;;;;4.35;2.53;;;18.60;49.60;;;;;;7390326;19;20011;-77
2022/05/31 00:52:34;;;;;;;6.82;2.63;;;18.40;49.60;;;;;;7369935;19;20022;-77
2022/05/31 00:55:07;;;;;;;3.45;2.50;;;18.30;50.00;;;;;;7368927;19;20011;-77
2022/05/31 00:57:38;;;;;;;4.63;2.17;;;18.30;50.20;;;;;;7371132;19;20042;-77
2022/05/31 01:00:11;;;;;;;3.90;1.75;;;18.20;49.80;;;;;;7368603;19;20019;-77
2022/05/31 01:02:41;;;;;;;3.63;1.85;;;18.20;49.50;;;;;;7368891;19;20090;-78
2022/05/31 01:05:12;;;;;;;4.63;2.03;;;18.20;49.10;;;;;;7390918;19;20010;-77
2022/05/31 01:07:44;;;;;;;3.08;1.80;;;18.30;48.50;;;;;;7368480;19;20011;-77
2022/05/31 01:10:15;;;;;;;4.18;1.92;;;18.30;48.70;;;;;;7368537;19;20015;-77
2022/05/31 01:12:46;;;;;;;6.40;2.67;;;18.30;49.00;;;;;;7369634;19;20033;-77
2022/05/31 01:15:17;;;;;;;6.40;2.33;;;18.40;49.70;;;;;;7370526;19;20427;-77
2022/05/31 01:17:46;;;;;;;4.23;2.40;;;18.40;50.10;;;;;;7369659;19;20741;-77
2022/05/31 01:20:19;;;;;;;6.68;2.50;;;18.30;50.40;;;;;;7391853;19;20010;-77
2022/05/31 01:22:52;;;;;;;7.50;2.38;;;18.20;50.40;;;;;;7370591;19;20014;-77
2022/05/31 01:25:37;;;;;;;5.95;2.63;;;18.20;50.20;;;;;;7369877;19;20018;-77
2022/05/31 01:28:16;;;;;;;4.63;2.55;;;18.10;50.40;;;;;;7370189;19;20044;-77
2022/05/31 01:30:49;;;;;;;7.40;2.80;;;18.00;50.50;;;;;;7370519;19;20039;-77
2022/05/31 01:33:24;;;;;;;3.35;1.90;;;18.00;50.60;;;;;;7369323;19;20375;-77
2022/05/31 01:35:56;;;;;;;3.33;1.80;;;18.00;49.70;;;;;;7366297;19;20018;-77
2022/05/31 01:38:33;;;;;;;3.63;1.88;;;18.00;49.10;;;;;;7368206;19;20018;-77
2022/05/31 01:41:09;;;;;;;4.40;2.10;;;18.00;48.70;;;;;;7390111;19;20019;-77
2022/05/31 01:43:39;;;;;;;3.45;2.33;;;18.00;49.30;;;;;;7366568;19;20058;-77
2022/05/31 01:46:12;;;;;;;4.35;2.28;;;18.00;49.80;;;;;;7367307;19;20086;-78
2022/05/31 01:48:44;;;;;;;4.82;2.38;;;18.00;50.20;;;;;;7368585;19;20018;-77
2022/05/31 01:51:15;;;;;;;5.28;2.55;;;18.10;50.40;;;;;;7369474;19;20124;-77
2022/05/31 01:53:44;;;;;;;6.28;2.65;;;18.10;50.60;;;;;;7369291;19;20026;-77
2022/05/31 01:56:14;;;;;;;3.85;2.50;;;18.10;50.90;;;;;;7388124;19;20043;-77
2022/05/31 01:58:47;;;;;;;2.72;2.38;;;18.10;50.60;;;;;;7369327;19;20019;-77
2022/05/31 02:01:17;;;;;;;4.03;2.08;;;18.10;50.40;;;;;;7366320;19;20316;-78
2022/05/31 02:03:48;;;;;;;3.45;1.83;;;18.00;50.20;;;;;;7367700;19;20018;-77
2022/05/31 02:06:32;;;;;;;4.60;2.42;;;18.00;50.20;;;;;;7366477;19;20455;-77
2022/05/31 02:09:01;;;;;;;8.57;2.40;;;18.00;50.20;;;;;;7367796;19;20462;-77
2022/05/31 02:11:30;;;;;;;4.60;2.40;;;18.00;50.80;;;;;;7367470;19;20014;-77
2022/05/31 02:14:00;;;;;;;5.35;2.22;;;18.00;50.80;;;;;;7391405;19;20018;-77
2022/05/31 02:16:29;;;;;;;4.55;2.35;;;18.00;50.60;;;;;;7368214;19;20015;-77
2022/05/31 02:21:42;;;;;;;4.53;2.35;;;18.00;50.80;;;;;;7369766;19;20463;-77
2022/05/31 02:24:13;;;;;;;5.88;2.60;;;18.00;50.90;;;;;;7366815;19;20024;-77
2022/05/31 02:26:44;;;;;;;4.00;2.60;;;17.90;50.80;;;;;;7366918;19;20014;-77
2022/05/31 02:29:15;;;;;;;4.00;2.10;;;17.90;50.90;;;;;;7386474;19;20036;-77
2022/05/31 02:31:44;;;;;;;5.97;2.38;;;17.80;50.70;;;;;;7368046;19;20027;-77
2022/05/31 02:34:14;;;;;;;4.22;2.10;;;17.80;50.80;;;;;;7365356;19;20019;-77
2022/05/31 02:36:46;;;;;;;3.27;2.30;;;17.80;50.90;;;;;;7368387;19;20451;-77
2022/05/31 02:39:15;;;;;;;4.60;2.10;;;17.80;50.80;;;;;;7368925;19;20011;-77
2022/05/31 02:41:45;;;;;;;4.63;2.10;;;17.80;51.10;;;;;;7367715;19;20709;-77
2022/05/31 02:44:14;;;;;;;5.05;2.35;;;17.90;51.20;;;;;;7389512;19;20039;-77
2022/05/31 02:46:44;;;;;;;4.78;2.80;;;17.90;51.40;;;;;;7366330;19;20028;-77
2022/05/31 02:49:14;;;;;;;2.95;2.13;;;17.90;52.30;;;;;;7366551;19;20023;-77
2022/05/31 02:51:47;;;;;;;4.80;2.20;;;17.90;51.40;;;;;;7366711;19;20047;-77
2022/05/31 02:54:19;;;;;;;4.38;2.05;;;17.90;50.90;;;;;;7371164;19;20046;-77
2022/05/31 02:56:48;;;;;;;3.90;1.90;;;17.90;50.60;;;;;;7373473;19;20039;-77
2022/05/31 02:59:17;;;;;;;4.20;2.17;;;17.90;50.30;;;;;;7376758;19;20018;-78
2022/05/31 03:01:47;;;;;;;5.75;2.25;;;17.80;50.30;;;;;;7396539;19;20487;-77
2022/05/31 03:04:16;;;;;;;3.33;2.53;;;17.80;50.40;;;;;;7371521;19;20311;-77
2022/05/31 03:06:48;;;;;;;4.07;2.30;;;17.80;50.60;;;;;;7373441;19;20120;-77
2022/05/31 03:09:18;;;;;;;4.60;2.10;;;17.80;50.60;;;;;;7373383;19;20019;-77
2022/05/31 03:11:51;;;;;;;3.25;2.03;;;17.90;50.80;;;;;;7372860;19;20014;-78
2022/05/31 03:14:26;;;;;;;3.33;2.17;;;17.80;50.70;;;;;;7375933;19;20022;-78
2022/05/31 03:17:00;;;;;;;4.30;2.08;;;17.80;51.10;;;;;;7393885;19;20018;-77
2022/05/31 03:19:32;;;;;;;5.22;2.10;;;17.80;50.90;;;;;;7372512;19;20088;-77
2022/05/31 03:22:08;;;;;;;4.93;2.10;;;17.80;50.30;;;;;;7373498;19;20011;-77
2022/05/31 03:24:40;;;;;;;4.97;1.95;;;17.80;50.50;;;;;;7374646;19;20097;-77
2022/05/31 03:27:11;;;;;;;4.63;2.30;;;17.80;51.10;;;;;;7373606;19;20022;-77
2022/05/31 03:29:42;;;;;;;;;;;17.80;51.50;;;;;;7374311;19;20015;-77
2022/05/31 03:32:11;;;;;;;7.35;3.10;;;17.80;51.70;;;;;;7396417;19;19943;-78
2022/05/31 03:34:41;;;;;;;3.08;2.30;;;17.70;51.70;;;;;;7371719;19;20094;-76
2022/05/31 03:37:12;;;;;;;4.70;2.45;;;17.70;52.00;;;;;;7371436;19;20034;-78
2022/05/31 03:39:41;;;;;;;7.00;2.60;;;17.60;52.10;;;;;;7370100;19;20035;-78
2022/05/31 03:42:10;;;;;;;5.75;2.72;;;17.40;51.80;;;;;;7372323;19;20018;-77
2022/05/31 03:44:39;;;;;;;3.63;2.40;;;17.30;52.10;;;;;;7371576;19;20022;-78
2022/05/31 03:47:08;;;;;;;6.35;2.60;;;17.20;52.30;;;;;;7395949;19;20026;-77
2022/05/31 03:49:37;;;;;;;6.88;2.63;;;17.20;53.30;;;;;;7371749;19;20457;-77
2022/05/31 03:52:07;;;;;;;7.30;2.55;;;17.10;53.40;;;;;;7372538;19;20014;-77
2022/05/31 03:54:40;;;;;;;2.20;2.00;;;17.10;53.00;;;;;;7372532;19;20006;-77
2022/05/31 03:57:10;;;;;;;6.32;2.70;;;17.20;53.00;;;;;;7371282;19;20019;-77
2022/05/31 03:59:39;;;;;;;4.93;2.30;;;17.20;53.20;;;;;;7369696;19;20014;-77
2022/05/31 04:02:08;;;;;;;5.30;2.40;;;17.20;53.50;;;;;;7393180;19;20027;-77
2022/05/31 04:04:37;;;;;;;5.07;2.47;;;17.20;52.90;;;;;;7366894;19;20082;-76
2022/05/31 04:07:06;;;;;;;4.13;2.28;;;17.20;52.40;;;;;;7371243;19;20044;-77
2022/05/31 04:09:35;;;;;;;5.38;2.30;;;17.20;52.10;;;;;;7372879;19;20023;-77
2022/05/31 04:12:07;;;;;;;2.30;1.90;;;17.10;52.00;;;;;;7371496;19;20082;-77
2022/05/31 04:14:36;;;;;;;8.20;2.05;;;17.10;51.70;;;;;;7368272;19;20027;-76
2022/05/31 04:17:05;;;;;;;3.65;2.42;;;17.10;51.10;;;;;;7391186;19;20022;-78
2022/05/31 04:19:34;;;;;;;5.72;2.15;;;17.10;51.20;;;;;;7371451;19;20014;-77
2022/05/31 04:22:03;;;;;;;5.88;3.00;;;17.10;51.50;;;;;;7369983;19;20022;-77
2022/05/31 04:24:32;;;;;;;5.90;2.50;;;17.10;51.70;;;;;;7370592;19;20041;-77
2022/05/31 04:27:00;;;;;;;4.50;2.20;;;17.00;51.70;;;;;;7373437;19;20018;-77
2022/05/31 04:29:32;;;;;;;8.25;2.60;;;17.00;51.60;;;;;;7369580;19;20015;-77
2022/05/31 04:32:01;;;;;;;5.70;3.00;;;17.00;51.90;;;;;;7395604;19;20026;-77
2022/05/31 04:34:30;;;;;;;7.40;2.88;;;17.00;52.30;;;;;;7369977;19;20017;-78
2022/05/31 04:37:00;;;;;;;9.20;2.83;;;16.90;52.70;;;;;;7368517;19;20034;-77
2022/05/31 04:39:29;;;;;;;6.28;2.67;;;16.90;53.10;;;;;;7371615;19;20081;-77
2022/05/31 04:41:58;;;;;;;8.95;2.92;;;16.80;53.10;;;;;;7372838;19;20161;-77
2022/05/31 04:44:27;;;;;;;3.17;2.08;;;16.80;53.60;;;;;;7372020;19;20319;-77
2022/05/31 04:46:59;;;;;;;3.63;2.58;;;16.90;53.60;;;;;;7393604;19;20047;-77
2022/05/31 04:49:28;;;;;;;7.63;3.03;;;16.90;53.70;;;;;;7369962;19;20006;-77
2022/05/31 04:51:56;;;;;;;6.03;3.15;;;17.00;53.90;;;;;;7369174;19;20022;-77
2022/05/31 04:54:28;;;;;;;5.32;2.65;;;17.00;54.00;;;;;;7371304;19;20101;-77
2022/05/31 04:56:59;;;;;;;5.63;3.20;;;17.00;53.90;;;;;;7368844;19;20019;-77
2022/05/31 04:59:29;;;;;;;10.50;3.08;;;17.00;53.60;;;;;;7368448;19;20019;-77
2022/05/31 05:02:00;;;;;;;8.93;3.53;;;17.00;53.60;;;;;;7391303;19;20027;-77
2022/05/31 05:04:29;;;;;;;4.57;2.50;;;17.00;53.60;;;;;;7368704;19;20022;-77
2022/05/31 05:06:59;;;;;;;3.75;2.50;;;17.10;53.80;;;;;;7369618;19;20018;-77
2022/05/31 05:09:28;;;;;;;5.93;2.67;;;17.10;53.90;;;;;;7369002;19;20038;-77
2022/05/31 05:11:57;;;;;;;6.65;2.85;;;17.10;54.00;;;;;;7372085;19;20018;-77
2022/05/31 05:14:25;;;;;;;9.52;2.53;;;17.20;54.10;;;;;;7367285;19;20045;-77
2022/05/31 05:16:54;;;;;;;7.50;2.92;;;17.20;53.90;;;;;;7390771;19;20089;-77
2022/05/31 05:19:26;;;;;;;6.32;2.60;;;17.30;53.80;;;;;;7370580;19;20457;-77
2022/05/31 05:21:55;;;;;;;;;;;17.30;53.70;;;;;;7368638;19;20025;-77
2022/05/31 05:24:24;;;;;;;11.35;4.18;;;17.40;53.50;;;;;;7366747;19;19926;-77
2022/05/31 05:26:53;;;;;;;8.63;2.95;;;17.40;53.40;;;;;;7367284;19;20657;-77
2022/05/31 05:32:09;;;;;;;9.88;3.17;;;17.40;53.60;;;;;;7386970;19;20113;-77
2022/05/31 05:34:40;;;;;;;8.32;2.90;;;17.30;53.60;;;;;;7367322;19;20017;-78
2022/05/31 05:37:09;;;;;;;4.22;2.63;;;17.40;53.80;;;;;;7365822;19;20014;-77
2022/05/31 05:39:39;;;;;;;9.60;2.78;;;17.40;53.70;;;;;;7365049;19;20039;-77
2022/05/31 05:42:08;;;;;;;7.95;3.08;;;17.50;53.80;;;;;;7366026;19;20046;-77
2022/05/31 05:44:37;;;;;;;11.13;3.00;;;17.50;53.70;;;;;;7361313;19;20037;-77
2022/05/31 05:47:08;;;;;;;8.00;3.15;;;17.60;53.70;;;;;;7384450;19;20018;-77
2022/05/31 05:49:40;;;;;;;8.20;2.90;;;17.60;53.50;;;;;;7366582;19;20035;-77
2022/05/31 05:52:12;;;;;;;7.78;3.00;;;17.60;53.80;;;;;;7360484;19;20277;-77
2022/05/31 05:54:41;;;;;;;5.00;2.80;;;17.70;53.90;;;;;;7362840;19;20459;-77
2022/05/31 05:57:10;;;;;;;7.47;3.50;;;17.80;54.10;;;;;;7364351;19;20054;-77
2022/05/31 05:59:39;;;;;;;4.75;2.92;;;17.80;54.00;;;;;;7365516;19;20046;-77
2022/05/31 06:02:14;;;;;;;9.40;3.30;;;17.90;53.80;;;;;;7386237;19;20022;-78
2022/05/31 06:04:48;;;;;;;7.18;3.13;;;18.00;53.80;;;;;;7359939;19;20014;-77
2022/05/31 06:07:23;;;;;;;7.40;3.03;;;18.10;53.60;;;;;;7362662;19;20360;-77
2022/05/31 06:09:57;;;;;;;6.18;2.72;;;18.10;53.60;;;;;;7364746;19;20010;-77
2022/05/31 06:12:31;;;;;;;5.78;2.92;;;18.30;53.70;;;;;;7367790;19;20089;-77
2022/05/31 06:15:04;;;;;;;7.82;3.00;;;18.30;53.70;;;;;;7369096;19;20011;-77
2022/05/31 06:17:37;;;;;;;5.97;2.90;;;18.50;54.20;;;;;;7369361;19;20315;-77
2022/05/31 06:20:11;;;;;;;10.45;2.92;;;18.50;53.00;;;;;;7390890;19;20118;-77
2022/05/31 06:22:43;;;;;;;6.43;2.67;;;18.50;52.60;;;;;;7366349;19;20086;-77
2022/05/31 06:25:15;;;;;;;4.88;2.80;;;18.50;52.60;;;;;;7365583;19;20048;-77
2022/05/31 06:27:44;;;;;;;6.78;3.08;;;18.60;52.50;;;;;;7368966;19;20014;-77
2022/05/31 06:30:13;;;;;;;9.25;2.72;;;18.70;52.70;;;;;;7370344;19;20550;-76
2022/05/31 06:32:42;;;;;;;8.82;3.08;;;18.60;52.60;;;;;;7375544;19;20490;-77
2022/05/31 06:35:14;;;;;;;5.95;2.80;;;18.70;52.80;;;;;;7397188;19;20433;-77
2022/05/31 06:37:42;;;;;;;5.60;2.65;;;18.70;52.70;;;;;;7373940;19;20031;-77
2022/05/31 06:40:12;;;;;;;17.98;3.55;;;18.70;52.50;;;;;;7372996;19;20106;-77
2022/05/31 06:42:40;;;;;;;7.65;3.10;;;18.70;52.40;;;;;;7374695;19;20019;-77
2022/05/31 06:45:10;;;;;;;5.75;2.90;;;18.70;52.30;;;;;;7370650;19;20025;-77
2022/05/31 06:47:39;;;;;;;7.97;2.75;;;18.70;52.40;;;;;;7374135;19;20015;-77
2022/05/31 06:50:10;;;;;;;7.20;2.90;;;18.70;52.50;;;;;;7394690;19;20018;-77
2022/05/31 06:58:03;;;;;;;12.20;3.25;;;18.80;53.40;;;;;;7371311;19;20039;-77
2022/05/31 07:00:32;;;;;;;5.72;2.70;;;18.80;53.30;;;;;;7372744;19;20450;-77
2022/05/31 07:03:02;;;;;;;9.30;3.08;;;18.80;53.20;;;;;;7370526;19;20043;-77
2022/05/31 07:05:31;;;;;;;6.68;2.97;;;18.90;53.30;;;;;;7371239;19;20371;-77
2022/05/31 07:08:02;;;;;;;7.75;2.83;;;18.90;53.40;;;;;;7396520;19;20022;-77
2022/05/31 07:10:31;;;;;;;;;;;19.00;53.60;;;;;;7376032;19;20018;-77
2022/05/31 07:13:00;;;;;;;7.25;3.08;;;19.10;53.60;;;;;;7370889;19;19922;-77
2022/05/31 07:15:31;;;;;;;6.35;2.60;;;19.10;53.50;;;;;;7372425;19;20011;-77
2022/05/31 07:18:00;;;;;;;11.10;3.05;;;19.20;53.50;;;;;;7373029;19;20011;-77
2022/05/31 07:20:29;;;;;;;8.38;2.70;;;19.20;53.70;;;;;;7374046;19;20010;-77
2022/05/31 07:22:57;;;;;;;7.63;2.75;;;19.30;53.60;;;;;;7394046;19;20373;-77
2022/05/31 07:25:29;;;;;;;5.82;2.60;;;19.40;53.30;;;;;;7371295;19;20018;-77
2022/05/31 07:27:59;;;;;;;6.78;2.78;;;19.40;53.20;;;;;;7369320;19;20022;-77
2022/05/31 07:30:28;;;;;;;7.15;2.55;;;19.50;52.80;;;;;;7371946;19;20014;-77
2022/05/31 07:32:57;;;;;;;10.73;2.95;;;19.60;52.50;;;;;;7373680;19;20011;-77
2022/05/31 07:35:27;;;;;;;12.25;2.90;;;19.70;52.10;;;;;;7371822;19;20022;-77
2022/05/31 07:37:56;;;;;;;11.02;2.90;;;19.70;51.70;;;;;;7389804;19;20015;-77
2022/05/31 07:40:24;;;;;;;7.70;2.80;;;19.80;49.90;;;;;;7369738;19;20010;-77
2022/05/31 07:42:56;;;;;;;12.32;3.15;;;19.70;50.00;;;;;;7372382;19;20014;-78
2022/05/31 07:45:25;;;;;;;9.48;2.58;;;19.70;50.40;;;;;;7368607;19;20024;-77
2022/05/31 07:47:53;;;;;;;9.65;3.22;;;19.70;50.00;;;;;;7371846;19;20015;-77
2022/05/31 07:50:23;;;;;;;11.15;2.70;;;19.80;49.80;;;;;;7372242;19;20086;-77
2022/05/31 07:52:52;;;;;;;11.15;2.65;;;19.80;49.50;;;;;;7393311;19;20464;-77
2022/05/31 07:55:21;;;;;;;6.63;2.63;;;19.80;49.00;;;;;;7371199;19;20550;-77
2022/05/31 08:00:34;;;;;;;6.47;2.30;;;19.90;48.80;;;;;;7372700;19;20545;-77
2022/05/31 08:03:02;;;;;;;9.55;2.72;;;19.90;48.80;;;;;;7371599;19;20114;-78
2022/05/31 08:05:32;;;;;;;5.43;2.22;;;19.90;48.70;;;;;;7360247;19;20089;-78
2022/05/31 08:08:00;;;;;;;6.82;3.13;;;19.90;48.40;;;;;;7392722;19;20022;-78
2022/05/31 08:10:31;;;;;;;8.98;2.40;;;19.90;48.60;;;;;;7370228;19;20031;-78
2022/05/31 08:13:00;;;;;;;9.60;2.43;;;19.80;48.50;;;;;;7362206;19;20006;-78
2022/05/31 08:15:33;;;;;;;8.15;2.50;;;19.90;48.20;;;;;;7368227;19;20820;-77
2022/05/31 08:18:02;;;;;;;18.63;3.05;;;19.80;48.10;;;;;;7370805;19;20025;-77
2022/05/31 08:20:31;;;;;;;4.65;1.65;;;19.80;47.80;;;;;;7365755;19;20328;-78
2022/05/31 08:23:01;;;;;;;4.57;2.20;;;19.50;45.90;;;;;;7393085;19;20022;-78
2022/05/31 08:25:33;;;;;;;7.38;2.03;;;19.50;46.60;;;;;;7369993;19;20497;-77
2022/05/31 08:28:04;;;;;;;2.80;1.75;;;19.40;46.70;;;;;;7371685;19;20006;-78
2022/05/31 08:30:36;;;;;;;7.25;1.75;;;19.40;46.60;;;;;;7372539;19;20047;-77
2022/05/31 08:33:05;;;;;;;6.85;2.03;;;19.30;46.90;;;;;;7373806;19;20043;-77
2022/05/31 08:35:34;;;;;;;9.88;1.98;;;19.30;47.40;;;;;;7371688;19;20022;-78
2022/05/31 08:38:03;;;;;;;9.32;2.00;;;19.20;47.30;;;;;;7392007;19;20847;-79
2022/05/31 08:40:33;;;;;;;8.07;1.70;;;19.20;47.30;;;;;;7371761;19;20443;-77
2022/05/31 08:43:08;;;;;;;5.40;1.77;;;19.20;48.10;;;;;;7371399;19;20320;-77
2022/05/31 08:45:50;;;;;;;5.57;2.20;;;19.20;47.50;;;;;;7369760;19;20018;-77
2022/05/31 08:48:32;;;;;;;6.72;1.88;;;19.20;47.60;;;;;;7214744;19;21391;-77
2022/05/31 08:56:56;;;;;;;6.07;2.13;;;19.30;47.50;;;;;;7369761;19;20018;-78
2022/05/31 08:56:56;;;;;;;6.60;2.17;;;19.40;47.70;;;;;;7369439;19;20010;-77
2022/05/31 08:59:33;;;;;;;5.72;1.65;;;19.50;47.80;;;;;;7372590;19;20018;-77
2022/05/31 09:02:18;;;;;;;1.92;1.52;;;19.60;47.60;;;;;;7390023;19;20022;-77
2022/05/31 09:04:54;;;;;;;2.53;1.50;;;19.60;47.00;;;;;;7365397;19;20014;-77
2022/05/31 09:07:26;;;;;;;2.45;1.50;;;19.70;47.20;;;;;;7369129;19;20025;-77
2022/05/31 09:10:00;;;;;;;5.85;1.83;;;19.80;46.80;;;;;;7366191;19;20019;-78
2022/05/31 09:12:36;;;;;;;6.80;1.52;;;19.90;46.30;;;;;;7369145;19;20014;-78
2022/05/31 09:15:11;;;;;;;8.90;1.90;;;20.00;45.80;;;;;;7368751;19;20010;-78
2022/05/31 09:17:54;;;;;;;8.98;2.03;;;20.00;45.00;;;;;;7369668;19;20018;-78
2022/05/31 09:20:31;;;;;;;5.38;2.10;;;20.00;44.90;;;;;;7367949;19;20034;-77
2022/05/31 09:23:02;;;;;;;4.38;2.03;;;20.10;44.70;;;;;;7391338;19;20018;-77
2022/05/31 09:25:39;;;;;;;2.67;1.50;;;20.20;44.50;;;;;;7368691;19;20015;-78
2022/05/31 09:28:21;;;;;;;4.28;1.50;;;20.20;43.30;;;;;;7370315;19;20014;-78
2022/05/31 09:30:50;;;;;;;6.38;1.50;;;20.10;43.60;;;;;;7368276;19;20546;-78
2022/05/31 09:33:32;;;;;;;3.78;1.63;;;20.00;42.70;;;;;;7367529;19;20010;-78
2022/05/31 09:36:12;;;;;;;6.25;1.80;;;20.00;42.90;;;;;;7369453;19;20014;-78
2022/05/31 09:39:03;;;;;;;4.30;1.52;;;20.10;43.00;;;;;;7369378;19;20179;-78
2022/05/31 09:41:39;;;;;;;3.03;1.42;;;20.30;43.50;;;;;;7370001;19;20022;-78
2022/05/31 09:44:16;;;;;;;6.22;1.85;;;20.50;41.50;;;;;;7393177;19;20023;-78
2022/05/31 09:46:48;;;;;;;2.58;1.58;;;20.50;40.40;;;;;;7368354;19;20018;-78
2022/05/31 09:49:26;;;;;;;4.82;1.52;;;20.40;41.10;;;;;;7369919;19;20022;-79
2022/05/31 09:51:55;;;;;;;3.17;1.40;;;20.30;41.20;;;;;;7367223;19;20010;-78
2022/05/31 09:57:11;;;;;;;;;;;20.50;43.10;;;;;;7370225;19;20093;-78
2022/05/31 09:59:47;;;;;;;4.15;1.70;;;20.70;42.30;;;;;;7368731;19;19922;-77
2022/05/31 10:02:29;;;;;;;3.28;1.40;;;20.80;42.40;;;;;;7387735;19;20098;-78
2022/05/31 10:05:24;;;;;;;8.35;1.52;;;21.00;40.20;;;;;;7390906;19;20090;-78
2022/05/31 10:07:53;;;;;;;2.85;1.30;;;21.20;39.70;;;;;;7369399;19;20010;-77
2022/05/31 10:10:30;;;;;;;1.95;1.20;;;21.30;39.30;;;;;;7369261;19;20015;-77
2022/05/31 10:13:01;;;;;;;4.93;1.40;;;21.40;38.00;;;;;;7366576;19;20015;-77
2022/05/31 10:15:37;;;;;;;3.65;1.13;;;21.50;36.90;;;;;;7365700;19;20018;-75
2022/05/31 10:18:08;;;;;;;3.78;1.17;;;21.40;37.70;;;;;;7366486;19;20372;-77
2022/05/31 10:20:41;;;;;;;;;;;21.30;37.00;;;;;;7365177;19;20519;-78
2022/05/31 10:23:15;;;;;;;2.33;1.10;;;21.30;36.90;;;;;;7385855;19;19922;-78
2022/05/31 10:25:47;;;;;;;1.92;1.50;;;21.20;37.50;;;;;;7363023;19;20060;-74
2022/05/31 10:28:26;;;;;;;6.38;1.55;;;21.20;37.40;;;;;;7364406;19;20014;-76
2022/05/31 10:31:03;;;;;;;3.10;1.23;;;21.20;38.10;;;;;;7366795;19;20357;-75
2022/05/31 10:33:34;;;;;;;3.67;1.33;;;21.20;37.30;;;;;;7365272;19;20140;-75
2022/05/31 10:36:18;;;;;;;3.85;1.02;;;21.10;38.20;;;;;;7365155;19;20361;-75
2022/05/31 10:38:49;;;;;;;4.95;1.40;;;21.00;38.30;;;;;;7365175;19;20035;-75
2022/05/31 10:41:29;;;;;;;2.42;1.20;;;21.00;38.50;;;;;;7363893;19;20023;-76
2022/05/31 10:44:04;;;;;;;1.63;1.23;;;20.90;38.80;;;;;;7384308;19;20010;-75
2022/05/31 10:46:35;;;;;;;3.47;1.10;;;20.70;39.80;;;;;;7364770;19;20014;-76
2022/05/31 10:49:07;;;;;;;3.08;1.30;;;20.80;39.70;;;;;;7365721;19;20011;-75
2022/05/31 10:51:54;;;;;;;5.07;1.45;;;20.70;39.80;;;;;;7367226;19;20072;-76
2022/05/31 10:54:37;;;;;;;2.58;1.50;;;20.80;40.10;;;;;;7367786;19;20014;-75
2022/05/31 10:57:18;;;;;;;1.92;0.90;;;20.80;40.30;;;;;;7364752;19;20035;-75
2022/05/31 10:59:52;;;;;;;1.83;1.10;;;20.70;39.90;;;;;;7365614;19;20066;-76
2022/05/31 11:02:45;;;;;;;3.45;1.40;;;20.80;40.00;;;;;;7364949;19;20022;-76
2022/05/31 11:05:16;;;;;;;7.78;1.38;;;21.00;40.20;;;;;;7388426;19;20031;-76
2022/05/31 11:13:37;;;;;;;2.25;1.10;;;21.30;38.60;;;;;;7363097;19;20019;-75
2022/05/31 11:16:13;;;;;;;2.75;1.25;;;21.40;37.80;;;;;;7369519;19;20022;-75
2022/05/31 11:18:58;;;;;;;4.13;1.65;;;21.40;38.10;;;;;;7370954;19;20019;-76
2022/05/31 11:21:44;;;;;;;2.30;0.88;;;21.50;38.20;;;;;;7374302;19;20086;-75
2022/05/31 11:24:32;;;;;;;4.65;1.05;;;21.50;37.80;;;;;;7372361;19;20027;-75
2022/05/31 11:27:14;;;;;;;5.60;1.35;;;21.40;37.80;;;;;;7368752;19;20094;-75
2022/05/31 11:30:05;;;;;;;3.88;1.40;;;21.40;38.20;;;;;;7374049;19;20019;-75
2022/05/31 11:32:41;;;;;;;;;;;21.20;39.00;;;;;;7373235;19;20014;-76
2022/05/31 11:35:22;;;;;;;7.82;1.40;;;21.20;39.00;;;;;;7395371;19;19986;-76
2022/05/31 11:38:04;;;;;;;2.10;1.00;;;21.30;38.80;;;;;;7373602;19;20022;-76
2022/05/31 11:40:46;;;;;;;1.25;1.15;;;21.20;38.90;;;;;;7371465;19;20018;-77
2022/05/31 11:44:08;;;;;;;3.35;1.23;;;21.30;39.80;;;;;;7370407;19;20045;-76
2022/05/31 11:46:43;;;;;;;3.28;1.20;;;21.50;39.40;;;;;;7367370;19;20026;-78
2022/05/31 11:49:20;;;;;;;5.15;1.35;;;21.80;38.20;;;;;;7375521;19;20022;-78
2022/05/31 11:52:08;;;;;;;1.88;1.08;;;21.80;38.10;;;;;;7371148;19;20136;-78
2022/05/31 11:58:15;;;;;;;1.98;1.08;;;21.90;36.80;;;;;;7372860;19;20140;-78
2022/05/31 12:00:51;;;;;;;5.68;1.00;;;22.00;37.20;;;;;;7370170;19;20018;-78
2022/05/31 12:03:26;;;;;;;1.83;1.13;;;21.90;36.10;;;;;;7371033;19;20110;-78
2022/05/31 12:06:02;;;;;;;2.75;1.17;;;21.90;36.60;;;;;;7371867;19;20018;-78
2022/05/31 12:08:36;;;;;;;3.45;1.02;;;22.00;36.70;;;;;;7371584;19;20022;-78
2022/05/31 12:11:11;;;;;;;3.55;1.63;;;22.10;36.30;;;;;;7391709;19;20017;-78
2022/05/31 12:13:46;;;;;;;3.35;1.17;;;22.20;35.90;;;;;;7372106;19;20356;-78
2022/05/31 12:16:16;;;;;;;0.65;0.63;;;22.10;36.10;;;;;;7368025;19;20031;-78
2022/05/31 12:18:56;;;;;;;1.73;1.10;;;22.10;36.50;;;;;;7369693;19;20688;-78
2022/05/31 12:21:33;;;;;;;2.42;0.80;;;21.90;36.30;;;;;;7368491;19;20039;-79
2022/05/31 12:24:08;;;;;;;4.10;1.42;;;22.00;36.10;;;;;;7371229;19;20039;-78
2022/05/31 12:26:41;;;;;;;3.15;1.02;;;21.80;36.70;;;;;;7372687;19;20037;-79
2022/05/31 12:29:21;;;;;;;2.15;0.77;;;21.80;36.90;;;;;;7398926;19;20019;-80
2022/05/31 12:31:50;;;;;;;1.20;0.90;;;21.90;36.90;;;;;;7374297;19;20093;-78
2022/05/31 12:34:43;;;;;;;3.03;1.20;;;22.00;37.50;;;;;;7372272;19;20439;-79
2022/05/31 12:37:14;;;;;;;1.50;1.02;;;22.10;36.60;;;;;;7372714;19;20031;-80
2022/05/31 12:39:44;;;;;;;3.58;1.02;;;22.10;36.70;;;;;;7371432;19;20082;-80
2022/05/31 12:42:42;;;;;;;5.72;1.30;;;22.30;36.10;;;;;;7371552;19;20027;-80
2022/05/31 12:45:39;;;;;;;4.85;1.20;;;22.30;37.00;;;;;;7372493;19;20014;-80
2022/05/31 12:48:24;;;;;;;2.60;0.80;;;22.20;36.30;;;;;;7367172;19;20568;-79
2022/05/31 12:51:24;;;;;;;3.10;1.10;;;22.20;35.40;;;;;;7370649;19;20055;-79
2022/05/31 12:54:11;;;;;;;1.17;0.90;;;22.30;35.60;;;;;;7367699;19;20031;-80
2022/05/31 12:57:04;;;;;;;0.88;0.70;;;22.30;35.10;;;;;;7371997;19;20021;-79
2022/05/31 12:59:54;;;;;;;1.67;0.95;;;22.60;34.80;;;;;;7370000;19;20030;-80
2022/05/31 13:02:43;;;;;;;3.15;1.05;;;22.70;34.80;;;;;;7368514;19;20088;-79
2022/05/31 13:05:33;;;;;;;10.60;1.50;;;22.90;34.90;;;;;;7388530;19;20014;-79
2022/05/31 13:08:26;;;;;;;1.83;0.95;;;23.00;35.60;;;;;;7368853;19;20017;-80
2022/05/31 13:21:59;;;;;;;1.55;0.65;;;23.00;34.30;;;;;;7369247;19;20407;-78
2022/05/31 13:24:30;;;;;;;4.18;0.90;;;23.20;33.70;;;;;;7370340;19;20017;-79
2022/05/31 13:27:01;;;;;;;1.10;0.83;;;23.30;33.90;;;;;;7371717;19;20015;-79
2022/05/31 13:29:30;;;;;;;2.17;1.00;;;23.20;34.00;;;;;;7368691;19;20014;-79
2022/05/31 13:32:01;;;;;;;0.93;0.70;;;23.00;33.70;;;;;;7393273;19;20014;-79
2022/05/31 13:34:39;;;;;;;1.80;1.00;;;22.90;34.20;;;;;;7370069;19;20057;-79
2022/05/31 13:37:21;;;;;;;1.67;0.70;;;22.70;34.00;;;;;;7370960;19;20025;-80
2022/05/31 13:39:52;;;;;;;2.65;0.90;;;22.70;34.70;;;;;;7371469;19;20024;-79
2022/05/31 13:42:26;;;;;;;1.63;0.82;;;22.80;34.80;;;;;;7373612;19;20019;-80
2022/05/31 13:44:56;;;;;;;1.65;0.90;;;22.70;34.60;;;;;;7365695;19;20359;-79
2022/05/31 13:47:26;;;;;;;3.97;0.93;;;22.80;34.80;;;;;;7368068;19;20636;-79
2022/05/31 13:50:08;;;;;;;1.42;0.93;;;23.00;34.50;;;;;;7387752;19;20027;-79
2022/05/31 13:52:42;;;;;;;1.52;0.82;;;23.10;34.50;;;;;;7363197;19;20309;-78
2022/05/31 13:55:16;;;;;;;3.05;1.05;;;23.20;33.20;;;;;;7367969;19;20309;-79
2022/05/31 13:57:54;;;;;;;2.28;0.70;;;23.30;33.30;;;;;;7368715;19;20044;-79
2022/05/31 14:00:36;;;;;;;3.58;1.20;;;23.40;33.60;;;;;;7367825;19;20530;-79